createdAt,value
2018-07-27T00:01:17.808Z,5.13
2018-07-27T00:03:46.061Z,4.77
2018-07-27T00:06:14.815Z,4.80
2018-07-27T00:08:43.656Z,4.90
2018-07-27T00:11:12.625Z,4.53
2018-07-27T00:13:40.875Z,4.47
2018-07-27T00:16:09.146Z,4.93
2018-07-27T00:18:37.446Z,4.50
2018-07-27T00:21:05.729Z,4.70
2018-07-27T00:23:33.989Z,4.60
2018-07-27T00:26:02.268Z,4.70
2018-07-27T00:28:30.558Z,4.80
2018-07-27T00:30:58.830Z,4.90
2018-07-27T00:33:27.084Z,4.50
2018-07-27T00:35:55.338Z,4.77
2018-07-27T00:38:23.588Z,5.07
2018-07-27T00:40:52.392Z,4.40
2018-07-27T00:43:21.010Z,4.70
2018-07-27T00:45:49.323Z,4.53
2018-07-27T00:48:17.583Z,4.90
2018-07-27T00:50:45.863Z,4.50
2018-07-27T00:53:14.114Z,4.77
2018-07-27T00:55:42.410Z,4.60
2018-07-27T00:58:10.656Z,4.50
2018-07-27T01:00:38.921Z,4.60
2018-07-27T01:03:08.344Z,4.40
2018-07-27T01:05:37.646Z,4.67
2018-07-27T01:08:06.486Z,4.43
2018-07-27T01:10:35.241Z,4.43
2018-07-27T01:13:03.346Z,4.77
2018-07-27T01:15:31.621Z,4.67
2018-07-27T01:17:59.874Z,4.70
2018-07-27T01:20:29.089Z,4.53
2018-07-27T01:22:57.486Z,4.60
2018-07-27T01:25:25.845Z,4.53
2018-07-27T01:27:54.123Z,5.00
2018-07-27T01:30:22.413Z,4.50
2018-07-27T01:32:50.662Z,4.67
2018-07-27T01:35:18.933Z,4.83
2018-07-27T01:37:47.205Z,4.67
2018-07-27T01:40:15.966Z,4.60
2018-07-27T01:42:44.302Z,4.60
2018-07-27T01:45:12.578Z,4.50
2018-07-27T01:47:40.838Z,4.87
2018-07-27T01:50:09.129Z,4.80
2018-07-27T01:52:37.392Z,4.70
2018-07-27T01:55:05.920Z,5.00
2018-07-27T01:57:34.182Z,4.97
2018-07-27T02:00:02.454Z,5.00
2018-07-27T02:02:30.742Z,4.80
2018-07-27T02:04:59.017Z,4.60
2018-07-27T02:07:27.323Z,4.43
2018-07-27T02:09:55.850Z,5.20
2018-07-27T02:12:24.458Z,4.53
2018-07-27T02:14:52.836Z,5.00
2018-07-27T02:17:21.106Z,4.93
2018-07-27T02:19:49.364Z,5.00
2018-07-27T02:22:17.613Z,4.50
2018-07-27T02:24:45.865Z,4.87
2018-07-27T02:27:14.117Z,4.93
2018-07-27T02:29:42.776Z,5.13
2018-07-27T02:32:11.669Z,4.93
2018-07-27T02:34:40.221Z,5.67
2018-07-27T02:37:08.899Z,4.90
2018-07-27T02:39:38.766Z,4.83
2018-07-27T02:42:07.077Z,4.73
2018-07-27T02:44:35.421Z,4.70
2018-07-27T02:47:03.691Z,5.13
2018-07-27T02:49:31.931Z,5.10
2018-07-27T02:52:00.209Z,5.20
2018-07-27T02:54:28.449Z,5.70
2018-07-27T02:56:56.449Z,5.20
2018-07-27T02:59:25.809Z,5.30
2018-07-27T03:01:54.059Z,5.10
2018-07-27T03:04:22.301Z,5.20
2018-07-27T03:06:50.754Z,5.03
2018-07-27T03:09:19.978Z,5.20
2018-07-27T03:11:48.206Z,5.07
2018-07-27T03:14:16.465Z,5.00
2018-07-27T03:16:44.778Z,5.40
2018-07-27T03:19:13.046Z,5.37
2018-07-27T03:21:41.281Z,5.50
2018-07-27T03:24:09.739Z,5.70
2018-07-27T03:26:37.997Z,5.13
2018-07-27T03:29:06.381Z,5.67
2018-07-27T03:31:34.631Z,5.53
2018-07-27T03:34:02.901Z,5.70
2018-07-27T03:36:31.149Z,5.67
2018-07-27T03:38:59.473Z,5.93
2018-07-27T03:41:27.517Z,5.27
2018-07-27T03:43:55.768Z,5.47
2018-07-27T03:46:24.014Z,5.50
2018-07-27T03:48:53.030Z,5.47
2018-07-27T03:51:23.986Z,5.17
2018-07-27T03:53:52.325Z,5.63
2018-07-27T03:56:20.591Z,5.40
2018-07-27T03:58:48.866Z,5.30
2018-07-27T04:01:17.113Z,5.33
2018-07-27T04:03:45.389Z,5.60
2018-07-27T04:06:13.658Z,5.83
2018-07-27T04:08:41.965Z,5.83
2018-07-27T04:11:10.197Z,5.37
2018-07-27T04:13:38.459Z,5.90
2018-07-27T04:16:06.753Z,5.90
2018-07-27T04:18:35.092Z,6.13
2018-07-27T04:21:03.325Z,5.87
2018-07-27T04:23:31.582Z,5.80
2018-07-27T04:25:59.821Z,5.30
2018-07-27T04:28:28.081Z,5.60
2018-07-27T04:30:56.356Z,5.83
2018-07-27T04:33:24.643Z,6.37
2018-07-27T04:35:52.963Z,6.50
2018-07-27T04:38:21.189Z,6.50
2018-07-27T04:40:49.438Z,6.33
2018-07-27T04:43:17.722Z,6.53
2018-07-27T04:45:46.548Z,6.10
2018-07-27T04:48:14.869Z,6.50
2018-07-27T04:50:43.133Z,6.20
2018-07-27T04:53:11.837Z,5.73
2018-07-27T04:55:40.140Z,6.27
2018-07-27T04:58:08.378Z,6.03
2018-07-27T05:00:36.730Z,6.00
2018-07-27T05:03:05.442Z,6.40
2018-07-27T05:05:33.746Z,5.87
2018-07-27T05:08:02.006Z,6.00
2018-07-27T05:10:35.638Z,6.30
2018-07-27T05:13:04.035Z,6.10
2018-07-27T05:15:32.361Z,11.07
2018-07-27T05:18:00.598Z,6.60
2018-07-27T05:20:28.874Z,7.13
2018-07-27T05:22:57.589Z,6.50
2018-07-27T05:25:25.857Z,7.97
2018-07-27T05:27:53.838Z,6.00
2018-07-27T05:30:22.112Z,6.00
2018-07-27T05:32:50.361Z,5.93
2018-07-27T05:35:19.748Z,5.83
2018-07-27T05:37:48.256Z,6.00
2018-07-27T05:40:16.949Z,6.17
2018-07-27T05:42:45.509Z,6.27
2018-07-27T05:45:14.507Z,5.67
2018-07-27T05:47:43.449Z,6.43
2018-07-27T05:50:12.147Z,5.90
2018-07-27T05:52:40.450Z,6.20
2018-07-27T05:55:08.746Z,6.40
2018-07-27T05:57:36.998Z,6.27
2018-07-27T06:00:06.706Z,6.00
2018-07-27T06:02:34.970Z,5.83
2018-07-27T06:05:03.716Z,7.07
2018-07-27T06:07:32.006Z,6.30
2018-07-27T06:10:00.281Z,6.90
2018-07-27T06:12:29.489Z,5.77
2018-07-27T06:14:58.630Z,5.77
2018-07-27T06:17:26.877Z,6.20
2018-07-27T06:19:55.130Z,6.30
2018-07-27T06:22:24.658Z,5.70
2018-07-27T06:24:54.168Z,6.23
2018-07-27T06:27:22.626Z,6.00
2018-07-27T06:29:50.923Z,5.90
2018-07-27T06:32:19.608Z,5.70
2018-07-27T06:34:47.857Z,5.40
2018-07-27T06:37:16.873Z,5.77
2018-07-27T06:39:46.201Z,5.87
2018-07-27T06:42:14.972Z,6.07
2018-07-27T06:44:43.321Z,5.97
2018-07-27T06:47:11.577Z,5.77
2018-07-27T06:49:40.081Z,5.80
2018-07-27T06:52:08.083Z,5.83
2018-07-27T06:54:36.388Z,5.80
2018-07-27T06:57:04.641Z,5.77
2018-07-27T06:59:32.895Z,5.80
2018-07-27T07:02:01.157Z,5.77
2018-07-27T07:04:29.165Z,5.37
2018-07-27T07:06:57.534Z,5.47
2018-07-27T07:09:25.782Z,5.77
2018-07-27T07:11:54.896Z,5.57
2018-07-27T07:14:23.457Z,5.33
2018-07-27T07:16:51.937Z,5.80
2018-07-27T07:19:20.181Z,5.87
2018-07-27T07:21:49.306Z,5.93
2018-07-27T07:24:18.669Z,5.47
2018-07-27T07:26:46.985Z,6.07
2018-07-27T07:29:15.229Z,5.83
2018-07-27T07:31:43.909Z,5.87
2018-07-27T07:34:12.154Z,5.40
2018-07-27T07:36:41.270Z,6.00
2018-07-27T07:39:11.203Z,5.67
2018-07-27T07:41:39.649Z,5.93
2018-07-27T07:44:08.798Z,5.67
2018-07-27T07:46:37.469Z,5.53
2018-07-27T07:49:06.849Z,6.00
2018-07-27T07:51:36.381Z,5.60
2018-07-27T07:54:04.649Z,5.57
2018-07-27T07:56:33.550Z,6.03
2018-07-27T07:59:02.214Z,5.60
2018-07-27T08:01:30.622Z,5.57
2018-07-27T08:03:58.890Z,5.50
2018-07-27T08:06:27.209Z,5.73
2018-07-27T08:08:56.152Z,6.07
2018-07-27T08:11:24.629Z,5.65
2018-07-27T08:13:52.893Z,5.60
2018-07-27T08:16:21.124Z,5.20
2018-07-27T08:18:50.177Z,5.28
2018-07-27T08:21:23.869Z,5.42
2018-07-27T08:23:52.802Z,5.70
2018-07-27T08:27:08.700Z,5.53
2018-07-27T08:29:43.309Z,5.62
2018-07-27T08:32:11.625Z,5.17
2018-07-27T08:34:40.050Z,5.42
2018-07-27T08:37:08.759Z,5.65
2018-07-27T08:39:39.170Z,5.50
2018-07-27T08:42:07.390Z,5.17
2018-07-27T08:44:40.806Z,5.15
2018-07-27T08:47:09.657Z,5.37
2018-07-27T08:49:39.053Z,5.47
2018-07-27T08:52:07.334Z,5.00
2018-07-27T08:54:35.594Z,5.40
2018-07-27T08:57:03.967Z,5.37
2018-07-27T08:59:33.186Z,5.67
2018-07-27T09:02:01.505Z,5.20
2018-07-27T09:04:30.536Z,5.37
2018-07-27T09:06:58.791Z,5.78
2018-07-27T09:09:27.074Z,5.17
2018-07-27T09:11:55.318Z,5.50
2018-07-27T09:14:23.750Z,5.40
2018-07-27T09:16:52.018Z,5.17
2018-07-27T09:19:20.300Z,5.62
2018-07-27T09:21:48.592Z,5.25
2018-07-27T09:24:16.643Z,5.30
2018-07-27T09:26:44.878Z,5.40
2018-07-27T09:29:15.148Z,5.58
2018-07-27T09:31:43.538Z,5.53
2018-07-27T09:34:11.608Z,5.08
2018-07-27T09:36:39.826Z,5.20
2018-07-27T09:39:09.925Z,5.25
2018-07-27T09:41:38.287Z,5.55
2018-07-27T09:44:06.881Z,5.40
2018-07-27T09:46:35.722Z,5.22
2018-07-27T09:49:03.965Z,5.50
2018-07-27T09:51:32.261Z,5.40
2018-07-27T09:54:00.552Z,5.47
2018-07-27T09:56:29.462Z,4.90
2018-07-27T09:58:57.749Z,6.05
2018-07-27T10:01:27.612Z,5.30
2018-07-27T10:03:56.073Z,5.40
2018-07-27T10:06:25.193Z,5.60
2018-07-27T10:08:54.639Z,5.30
2018-07-27T10:11:22.925Z,5.12
2018-07-27T10:13:51.177Z,5.00
2018-07-27T10:16:19.454Z,5.22
2018-07-27T10:18:48.700Z,5.30
2018-07-27T10:21:17.375Z,5.03
2018-07-27T10:23:46.154Z,5.05
2018-07-27T10:26:14.873Z,5.55
2018-07-27T10:28:43.119Z,5.10
2018-07-27T10:31:11.412Z,5.00
2018-07-27T10:33:39.682Z,4.95
2018-07-27T10:36:08.054Z,5.15
2018-07-27T10:38:36.344Z,5.03
2018-07-27T10:41:04.598Z,4.90
2018-07-27T10:43:32.889Z,4.90
2018-07-27T10:46:01.150Z,5.10
2018-07-27T10:48:29.429Z,5.22
2018-07-27T10:50:57.693Z,5.10
2018-07-27T10:53:25.943Z,4.95
2018-07-27T10:55:54.533Z,5.10
2018-07-27T10:58:23.495Z,5.40
2018-07-27T11:00:52.121Z,5.50
2018-07-27T11:03:20.382Z,5.40
2018-07-27T11:05:48.640Z,5.40
2018-07-27T11:08:16.635Z,5.40
2018-07-27T11:10:44.881Z,5.60
2018-07-27T11:13:13.372Z,5.60
2018-07-27T11:15:42.392Z,5.80
2018-07-27T11:18:11.165Z,6.10
2018-07-27T11:20:39.418Z,5.20
2018-07-27T11:23:07.818Z,5.87
2018-07-27T11:25:36.081Z,5.53
2018-07-27T11:28:04.313Z,5.10
2018-07-27T11:30:32.574Z,5.33
2018-07-27T11:33:00.825Z,5.83
2018-07-27T11:35:29.249Z,5.27
2018-07-27T11:37:57.506Z,5.93
2018-07-27T11:40:25.746Z,5.97
2018-07-27T11:42:54.953Z,6.00
2018-07-27T11:45:23.309Z,5.80
2018-07-27T11:47:51.732Z,5.67
2018-07-27T11:50:19.989Z,5.37
2018-07-27T11:52:48.555Z,5.93
2018-07-27T11:55:17.341Z,5.97
2018-07-27T11:57:45.640Z,5.70
2018-07-27T12:00:14.240Z,6.17
2018-07-27T12:02:43.005Z,5.87
2018-07-27T12:05:11.170Z,6.23
2018-07-27T12:07:39.421Z,5.90
2018-07-27T12:10:07.990Z,5.90
2018-07-27T12:12:36.310Z,5.70
2018-07-27T12:15:05.147Z,5.87
2018-07-27T12:17:33.213Z,5.57
2018-07-27T12:20:01.737Z,5.90
2018-07-27T12:22:30.030Z,5.93
2018-07-27T12:24:58.357Z,6.17
2018-07-27T12:27:26.626Z,6.23
2018-07-27T12:29:54.866Z,5.70
2018-07-27T12:32:23.173Z,5.63
2018-07-27T12:34:51.414Z,5.83
2018-07-27T12:37:19.735Z,5.50
2018-07-27T12:39:47.983Z,5.70
2018-07-27T12:42:16.243Z,5.40
2018-07-27T12:44:44.566Z,5.50
2018-07-27T12:47:12.859Z,5.57
2018-07-27T12:49:41.242Z,5.40
2018-07-27T12:52:09.634Z,5.40
2018-07-27T12:54:38.117Z,5.37
2018-07-27T12:57:06.412Z,5.33
2018-07-27T12:59:34.961Z,5.53
2018-07-27T13:02:03.269Z,5.23
2018-07-27T13:04:31.789Z,5.43
2018-07-27T13:07:00.986Z,5.10
2018-07-27T13:09:29.276Z,5.13
2018-07-27T13:11:57.541Z,5.27
2018-07-27T13:14:26.069Z,5.43
2018-07-27T13:16:54.366Z,5.07
2018-07-27T13:19:24.465Z,5.33
2018-07-27T13:21:53.010Z,5.10
2018-07-27T13:24:21.162Z,5.27
2018-07-27T13:26:49.420Z,5.03
2018-07-27T13:29:17.677Z,5.20
2018-07-27T13:31:56.076Z,4.93
2018-07-27T13:37:05.961Z,5.67
2018-07-27T13:39:34.764Z,4.90
2018-07-27T13:42:04.054Z,4.93
2018-07-27T13:44:33.394Z,5.00
2018-07-27T13:47:02.251Z,5.00
2018-07-27T13:49:30.505Z,5.00
2018-07-27T13:51:59.223Z,5.30
2018-07-27T13:54:28.235Z,4.97
2018-07-27T13:56:57.141Z,5.30
2018-07-27T13:59:25.185Z,5.30
2018-07-27T14:01:53.445Z,5.30
2018-07-27T14:04:21.771Z,5.50
2018-07-27T14:06:51.333Z,5.33
2018-07-27T14:09:19.644Z,4.97
2018-07-27T14:11:47.938Z,5.03
2018-07-27T14:14:16.256Z,5.10
2018-07-27T14:16:44.501Z,5.23
2018-07-27T14:19:13.543Z,4.93
2018-07-27T14:21:42.501Z,5.10
2018-07-27T14:24:10.805Z,4.70
2018-07-27T14:26:39.284Z,5.07
2018-07-27T14:29:08.626Z,4.93
2018-07-27T14:31:36.881Z,4.80
2018-07-27T14:34:05.357Z,5.03
2018-07-27T14:36:33.631Z,4.93
2018-07-27T14:39:01.912Z,4.97
2018-07-27T14:41:31.086Z,4.90
2018-07-27T14:43:59.397Z,4.73
2018-07-27T14:46:27.636Z,4.83
2018-07-27T14:48:56.080Z,4.47
2018-07-27T14:51:24.969Z,4.83
2018-07-27T14:53:53.793Z,4.77
2018-07-27T14:56:22.104Z,4.60
2018-07-27T14:58:50.484Z,4.87
2018-07-27T15:01:18.827Z,4.87
2018-07-27T15:03:46.852Z,5.00
2018-07-27T15:06:15.120Z,4.87
2018-07-27T15:08:43.469Z,5.03
2018-07-27T15:11:11.741Z,4.70
2018-07-27T15:13:40.280Z,4.67
2018-07-27T15:16:08.964Z,4.60
2018-07-27T15:18:37.284Z,4.90
2018-07-27T15:21:05.530Z,4.67
2018-07-27T15:23:34.295Z,4.10
2018-07-27T15:26:03.465Z,4.10
2018-07-27T15:28:32.501Z,4.07
2018-07-27T15:31:01.492Z,4.50
2018-07-27T15:33:30.365Z,4.33
2018-07-27T15:35:58.805Z,4.47
2018-07-27T15:38:27.149Z,4.60
2018-07-27T15:40:55.453Z,4.30
2018-07-27T15:43:23.741Z,4.53
2018-07-27T15:45:53.034Z,4.53
2018-07-27T15:48:22.323Z,4.53
2018-07-27T15:50:50.579Z,4.63
2018-07-27T15:53:18.985Z,4.33
2018-07-27T15:55:47.325Z,4.70
2018-07-27T15:58:15.605Z,4.50
2018-07-27T16:00:44.036Z,4.70
2018-07-27T16:03:12.753Z,4.67
2018-07-27T16:05:41.393Z,4.77
2018-07-27T16:08:09.786Z,4.60
2018-07-27T16:10:38.685Z,4.80
2018-07-27T16:13:07.267Z,4.80
2018-07-27T16:15:35.589Z,4.63
2018-07-27T16:18:03.866Z,4.77
2018-07-27T16:20:32.164Z,4.40
2018-07-27T16:23:00.476Z,4.40
2018-07-27T16:25:28.812Z,4.63
2018-07-27T16:27:57.160Z,4.33
2018-07-27T16:30:25.224Z,4.20
2018-07-27T16:32:53.514Z,4.30
2018-07-27T16:35:21.797Z,4.23
2018-07-27T16:37:50.911Z,4.70
2018-07-27T16:40:19.349Z,4.80
2018-07-27T16:42:47.609Z,4.53
2018-07-27T16:45:15.953Z,4.07
2018-07-27T16:47:44.261Z,4.60
2018-07-27T16:50:12.565Z,4.43
2018-07-27T16:52:40.919Z,4.60
2018-07-27T16:55:09.197Z,4.60
2018-07-27T16:57:37.505Z,4.33
2018-07-27T17:00:05.906Z,4.20
2018-07-27T17:02:34.209Z,4.37
2018-07-27T17:05:02.600Z,4.63
2018-07-27T17:07:30.934Z,4.73
2018-07-27T17:09:59.257Z,4.70
2018-07-27T17:12:27.676Z,4.10
2018-07-27T17:14:55.997Z,4.57
2018-07-27T17:17:25.081Z,4.60
2018-07-27T17:19:53.365Z,5.03
2018-07-27T17:22:22.523Z,4.27
2018-07-27T17:24:50.846Z,4.47
2018-07-27T17:27:19.093Z,4.27
2018-07-27T17:29:47.176Z,4.50
2018-07-27T17:32:15.181Z,4.33
2018-07-27T17:34:43.430Z,4.13
2018-07-27T17:37:11.726Z,4.70
2018-07-27T17:39:39.985Z,4.60
2018-07-27T17:42:08.266Z,4.83
2018-07-27T17:44:36.513Z,4.70
2018-07-27T17:47:05.371Z,4.70
2018-07-27T17:49:33.619Z,4.80
2018-07-27T17:52:01.875Z,5.07
2018-07-27T17:54:30.158Z,4.47
2018-07-27T17:56:58.426Z,4.60
2018-07-27T17:59:26.465Z,4.33
2018-07-27T18:01:54.782Z,4.50
2018-07-27T18:04:23.046Z,4.70
2018-07-27T18:06:51.302Z,4.57
2018-07-27T18:09:19.560Z,4.50
2018-07-27T18:11:47.825Z,4.50
2018-07-27T18:14:16.104Z,4.73
2018-07-27T18:16:44.341Z,4.90
2018-07-27T18:19:12.610Z,4.63
2018-07-27T18:21:41.022Z,5.03
2018-07-27T18:24:09.325Z,4.73
2018-07-27T18:26:37.717Z,4.60
2018-07-27T18:29:06.029Z,4.80
2018-07-27T18:31:34.344Z,4.80
2018-07-27T18:34:02.729Z,4.97
2018-07-27T18:36:30.983Z,4.90
2018-07-27T18:38:59.261Z,5.30
2018-07-27T18:41:27.537Z,5.07
2018-07-27T18:43:55.805Z,5.17
2018-07-27T18:46:24.130Z,4.93
2018-07-27T18:48:53.517Z,5.20
2018-07-27T18:51:21.813Z,5.03
2018-07-27T18:53:50.129Z,5.37
2018-07-27T18:56:18.472Z,5.17
2018-07-27T18:58:46.454Z,5.37
2018-07-27T19:01:14.729Z,5.40
2018-07-27T19:03:43.001Z,5.20
2018-07-27T19:06:11.256Z,5.30
2018-07-27T19:08:39.514Z,5.80
2018-07-27T19:11:07.504Z,5.67
2018-07-27T19:13:35.882Z,5.80
2018-07-27T19:16:04.172Z,5.60
2018-07-27T19:18:32.492Z,5.83
2018-07-27T19:21:00.796Z,5.60
2018-07-27T19:23:29.073Z,5.77
2018-07-27T19:25:57.326Z,5.40
2018-07-27T19:28:25.586Z,5.67
2018-07-27T19:30:53.879Z,5.80
2018-07-27T19:33:22.216Z,5.27
2018-07-27T19:35:50.462Z,5.53
2018-07-27T19:38:25.492Z,5.87
2018-07-27T19:40:53.779Z,6.13
2018-07-27T19:43:22.044Z,5.90
2018-07-27T19:45:50.299Z,6.10
2018-07-27T19:48:18.641Z,6.17
2018-07-27T19:50:47.184Z,6.43
2018-07-27T19:53:15.493Z,6.20
2018-07-27T19:55:43.798Z,6.00
2018-07-27T19:58:12.074Z,6.20
2018-07-27T20:00:40.429Z,5.90
2018-07-27T20:03:08.781Z,5.63
2018-07-27T20:05:37.029Z,5.77
2018-07-27T20:08:05.482Z,5.90
2018-07-27T20:10:33.711Z,6.33
2018-07-27T20:13:02.237Z,6.03
2018-07-27T20:15:30.496Z,6.47
2018-07-27T20:17:58.809Z,5.87
2018-07-27T20:20:27.086Z,6.00
2018-07-27T20:22:55.354Z,6.23
2018-07-27T20:25:23.646Z,5.87
2018-07-27T20:27:51.905Z,5.93
2018-07-27T20:30:20.230Z,6.40
2018-07-27T20:32:48.488Z,6.17
2018-07-27T20:35:17.070Z,6.07
2018-07-27T20:37:45.329Z,6.37
2018-07-27T20:40:13.598Z,6.77
2018-07-27T20:42:41.834Z,6.27
2018-07-27T20:45:10.671Z,6.30
2018-07-27T20:47:38.966Z,5.87
2018-07-27T20:50:07.925Z,5.80
2018-07-27T20:52:36.162Z,6.50
2018-07-27T20:55:04.480Z,6.30
2018-07-27T20:57:32.834Z,7.03
2018-07-27T21:00:01.096Z,6.37
2018-07-27T21:02:29.115Z,6.50
2018-07-27T21:04:57.373Z,6.57
2018-07-27T21:07:25.894Z,6.03
2018-07-27T21:09:54.214Z,5.87
2018-07-27T21:12:22.405Z,6.90
2018-07-27T21:14:50.653Z,6.43
2018-07-27T21:17:19.021Z,6.80
2018-07-27T21:19:47.460Z,6.53
2018-07-27T21:22:15.859Z,6.07
2018-07-27T21:24:44.104Z,6.47
2018-07-27T21:27:12.411Z,6.30
2018-07-27T21:29:40.983Z,5.93
2018-07-27T21:32:09.503Z,6.37
2018-07-27T21:34:37.817Z,6.10
2018-07-27T21:37:05.836Z,6.10
2018-07-27T21:39:34.173Z,6.27
2018-07-27T21:42:02.471Z,6.30
2018-07-27T21:44:30.833Z,6.30
2018-07-27T21:46:59.073Z,6.53
2018-07-27T21:49:27.647Z,6.60
2018-07-27T21:51:55.885Z,6.57
2018-07-27T21:54:24.139Z,6.73
2018-07-27T21:56:52.444Z,6.73
2018-07-27T21:59:20.729Z,6.23
2018-07-27T22:01:49.069Z,6.63
2018-07-27T22:04:17.613Z,6.70
2018-07-27T22:06:45.889Z,6.33
2018-07-27T22:09:14.146Z,6.20
2018-07-27T22:11:42.406Z,6.53
2018-07-27T22:14:10.908Z,6.60
2018-07-27T22:16:39.166Z,6.30
2018-07-27T22:19:07.452Z,6.53
2018-07-27T22:21:35.706Z,7.17
2018-07-27T22:24:04.075Z,6.37
2018-07-27T22:26:32.473Z,6.23
2018-07-27T22:29:00.727Z,6.53
2018-07-27T22:31:29.054Z,6.67
2018-07-27T22:33:57.334Z,6.80
2018-07-27T22:36:25.658Z,6.20
2018-07-27T22:38:54.098Z,6.40
2018-07-27T22:41:22.505Z,6.40
2018-07-27T22:43:50.766Z,6.40
2018-07-27T22:46:19.061Z,6.77
2018-07-27T22:48:47.323Z,7.20
2018-07-27T22:51:15.622Z,6.80
2018-07-27T22:53:43.884Z,6.40
2018-07-27T22:56:12.186Z,7.17
2018-07-27T22:58:40.449Z,7.20
2018-07-27T23:01:09.590Z,7.47
2018-07-27T23:03:38.118Z,6.80
2018-07-27T23:06:06.460Z,7.17
2018-07-27T23:08:34.711Z,6.20
2018-07-27T23:11:03.024Z,6.70
2018-07-27T23:13:31.364Z,6.23
2018-07-27T23:15:59.681Z,6.33
2018-07-27T23:18:27.935Z,6.93
2018-07-27T23:20:55.926Z,6.40
2018-07-27T23:23:24.185Z,6.53
2018-07-27T23:25:52.483Z,6.63
2018-07-27T23:28:20.930Z,6.23
2018-07-27T23:30:49.202Z,6.27
2018-07-27T23:33:17.762Z,6.20
2018-07-27T23:35:46.046Z,6.40
2018-07-27T23:38:14.637Z,7.37
2018-07-27T23:40:42.938Z,6.50
2018-07-27T23:43:11.364Z,7.00
2018-07-27T23:45:39.645Z,6.67
2018-07-27T23:48:07.881Z,7.20
2018-07-27T23:50:36.156Z,6.53
2018-07-27T23:53:04.220Z,6.90
2018-07-27T23:55:32.851Z,6.97
2018-07-27T23:58:01.220Z,6.87
